sensor_id;sensor_type;location;lat;lon;timestamp;pressure;altitude;pressure_sealevel;temperature;humidity
11329;BME280;5719;42.714;23.732;2022-11-15T00:00:46;94995.63;;;4.24;77.00
11329;BME280;5719;42.714;23.732;2022-11-15T00:03:13;94990.59;;;4.22;76.28
11329;BME280;5719;42.714;23.732;2022-11-15T00:05:41;94986.41;;;4.20;76.70
11329;BME280;5719;42.714;23.732;2022-11-15T00:08:08;94983.06;;;4.18;77.09
11329;BME280;5719;42.714;23.732;2022-11-15T00:10:34;94995.00;;;4.19;77.73
11329;BME280;5719;42.714;23.732;2022-11-15T00:13:04;94990.81;;;4.16;77.96
11329;BME280;5719;42.714;23.732;2022-11-15T00:15:34;94989.22;;;4.14;76.38
11329;BME280;5719;42.714;23.732;2022-11-15T00:18:01;94979.22;;;4.08;76.93
11329;BME280;5719;42.714;23.732;2022-11-15T00:20:28;94975.00;;;4.07;77.83
11329;BME280;5719;42.714;23.732;2022-11-15T00:22:55;94973.44;;;4.03;78.45
11329;BME280;5719;42.714;23.732;2022-11-15T00:25:22;94979.28;;;4.06;78.66
11329;BME280;5719;42.714;23.732;2022-11-15T00:27:49;94974.09;;;4.08;78.29
11329;BME280;5719;42.714;23.732;2022-11-15T00:30:17;94971.53;;;4.08;77.48
11329;BME280;5719;42.714;23.732;2022-11-15T00:32:45;94972.34;;;3.86;77.22
11329;BME280;5719;42.714;23.732;2022-11-15T00:35:12;94968.19;;;3.84;77.30
11329;BME280;5719;42.714;23.732;2022-11-15T00:37:39;94974.91;;;3.86;77.06
11329;BME280;5719;42.714;23.732;2022-11-15T00:40:07;94966.47;;;3.84;77.39
11329;BME280;5719;42.714;23.732;2022-11-15T00:42:34;94963.03;;;3.85;77.04
11329;BME280;5719;42.714;23.732;2022-11-15T00:45:01;94960.59;;;3.82;76.35
11329;BME280;5719;42.714;23.732;2022-11-15T00:47:28;94964.03;;;3.81;76.24
11329;BME280;5719;42.714;23.732;2022-11-15T00:49:56;94965.81;;;3.79;76.00
11329;BME280;5719;42.714;23.732;2022-11-15T00:52:23;94957.50;;;3.74;76.83
11329;BME280;5719;42.714;23.732;2022-11-15T00:54:50;94959.50;;;3.66;78.77
11329;BME280;5719;42.714;23.732;2022-11-15T00:57:17;94959.50;;;3.66;79.31
11329;BME280;5719;42.714;23.732;2022-11-15T00:59:43;94960.47;;;3.64;79.63
11329;BME280;5719;42.714;23.732;2022-11-15T01:02:10;94953.66;;;3.63;78.68
11329;BME280;5719;42.714;23.732;2022-11-15T01:04:37;94956.34;;;3.60;78.47
11329;BME280;5719;42.714;23.732;2022-11-15T01:07:06;94961.47;;;3.60;77.19
11329;BME280;5719;42.714;23.732;2022-11-15T01:09:32;94956.38;;;3.58;77.11
11329;BME280;5719;42.714;23.732;2022-11-15T01:11:59;94955.66;;;3.55;77.92
11329;BME280;5719;42.714;23.732;2022-11-15T01:14:26;94962.38;;;3.57;80.58
11329;BME280;5719;42.714;23.732;2022-11-15T01:16:53;94956.50;;;3.55;79.82
11329;BME280;5719;42.714;23.732;2022-11-15T01:19:20;94959.19;;;3.52;78.61
11329;BME280;5719;42.714;23.732;2022-11-15T01:21:48;94954.94;;;3.51;77.59
11329;BME280;5719;42.714;23.732;2022-11-15T01:24:17;94958.38;;;3.50;76.98
11329;BME280;5719;42.714;23.732;2022-11-15T01:26:44;94956.03;;;3.45;76.43
11329;BME280;5719;42.714;23.732;2022-11-15T01:29:10;94950.41;;;3.36;76.23
11329;BME280;5719;42.714;23.732;2022-11-15T01:31:37;94957.34;;;3.32;76.32
11329;BME280;5719;42.714;23.732;2022-11-15T01:34:04;94956.59;;;3.30;76.28
11329;BME280;5719;42.714;23.732;2022-11-15T01:36:31;94955.75;;;3.30;76.94
11329;BME280;5719;42.714;23.732;2022-11-15T01:38:58;94954.19;;;3.26;77.07
11329;BME280;5719;42.714;23.732;2022-11-15T01:41:29;94956.75;;;3.26;77.93
11329;BME280;5719;42.714;23.732;2022-11-15T01:43:57;94955.06;;;3.25;78.53
11329;BME280;5719;42.714;23.732;2022-11-15T01:46:46;94947.41;;;3.25;78.24
11329;BME280;5719;42.714;23.732;2022-11-15T01:49:17;94949.19;;;3.23;77.60
11329;BME280;5719;42.714;23.732;2022-11-15T01:51:44;94944.09;;;3.23;78.59
11329;BME280;5719;42.714;23.732;2022-11-15T01:54:14;94944.91;;;3.23;79.34
11329;BME280;5719;42.714;23.732;2022-11-15T01:56:48;94946.63;;;3.23;81.47
11329;BME280;5719;42.714;23.732;2022-11-15T01:59:16;94947.47;;;3.23;82.45
11329;BME280;5719;42.714;23.732;2022-11-15T02:01:44;94944.75;;;3.28;83.82
11329;BME280;5719;42.714;23.732;2022-11-15T02:04:13;94947.31;;;3.28;85.85
11329;BME280;5719;42.714;23.732;2022-11-15T02:06:41;94940.25;;;3.34;87.27
11329;BME280;5719;42.714;23.732;2022-11-15T02:09:09;94946.09;;;3.38;88.23
11329;BME280;5719;42.714;23.732;2022-11-15T02:11:37;94942.56;;;3.40;87.67
11329;BME280;5719;42.714;23.732;2022-11-15T02:14:06;94949.53;;;3.37;87.65
11329;BME280;5719;42.714;23.732;2022-11-15T02:16:39;94941.97;;;3.34;86.54
11329;BME280;5719;42.714;23.732;2022-11-15T02:19:24;94938.41;;;3.38;86.74
11329;BME280;5719;42.714;23.732;2022-11-15T02:22:03;94947.19;;;3.31;87.96
11329;BME280;5719;42.714;23.732;2022-11-15T02:24:55;94947.00;;;3.35;87.25
11329;BME280;5719;42.714;23.732;2022-11-15T02:30:23;94940.06;;;3.39;89.94
11329;BME280;5719;42.714;23.732;2022-11-15T02:32:53;94941.69;;;3.41;89.62
11329;BME280;5719;42.714;23.732;2022-11-15T02:35:30;94942.47;;;3.43;90.34
11329;BME280;5719;42.714;23.732;2022-11-15T02:38:06;94937.22;;;3.46;90.47
11329;BME280;5719;42.714;23.732;2022-11-15T02:40:40;94933.88;;;3.46;91.69
11329;BME280;5719;42.714;23.732;2022-11-15T02:43:12;94934.88;;;3.42;92.12
11329;BME280;5719;42.714;23.732;2022-11-15T02:46:04;94937.75;;;3.33;91.73
11329;BME280;5719;42.714;23.732;2022-11-15T02:48:34;94936.97;;;3.31;92.64
11329;BME280;5719;42.714;23.732;2022-11-15T02:51:01;94940.28;;;3.33;92.96
11329;BME280;5719;42.714;23.732;2022-11-15T02:53:28;94935.78;;;3.39;94.23
11329;BME280;5719;42.714;23.732;2022-11-15T02:55:56;94940.06;;;3.39;94.27
11329;BME280;5719;42.714;23.732;2022-11-15T03:01:28;94939.75;;;3.48;96.28
11329;BME280;5719;42.714;23.732;2022-11-15T03:04:03;94925.34;;;3.45;97.26
11329;BME280;5719;42.714;23.732;2022-11-15T03:06:39;94933.88;;;3.46;96.80
11329;BME280;5719;42.714;23.732;2022-11-15T03:09:13;94935.66;;;3.42;97.32
11329;BME280;5719;42.714;23.732;2022-11-15T03:11:47;94934.94;;;3.39;97.24
11329;BME280;5719;42.714;23.732;2022-11-15T03:14:22;94937.34;;;3.43;97.42
11329;BME280;5719;42.714;23.732;2022-11-15T03:17:00;94937.84;;;3.53;97.70
11329;BME280;5719;42.714;23.732;2022-11-15T03:19:33;94932.84;;;3.50;98.34
11329;BME280;5719;42.714;23.732;2022-11-15T03:22:03;94928.41;;;3.55;98.07
11329;BME280;5719;42.714;23.732;2022-11-15T03:24:33;94934.09;;;3.62;98.67
11329;BME280;5719;42.714;23.732;2022-11-15T03:27:03;94932.03;;;3.71;99.25
11329;BME280;5719;42.714;23.732;2022-11-15T03:29:33;94932.63;;;3.78;100.00
11329;BME280;5719;42.714;23.732;2022-11-15T03:32:07;94932.41;;;3.84;100.00
11329;BME280;5719;42.714;23.732;2022-11-15T03:34:39;94921.19;;;3.86;100.00
11329;BME280;5719;42.714;23.732;2022-11-15T03:37:09;94928.13;;;3.84;100.00
11329;BME280;5719;42.714;23.732;2022-11-15T03:39:38;94920.97;;;3.92;100.00
11329;BME280;5719;42.714;23.732;2022-11-15T03:42:12;94921.53;;;4.01;100.00
11329;BME280;5719;42.714;23.732;2022-11-15T03:44:47;94916.28;;;4.04;100.00
11329;BME280;5719;42.714;23.732;2022-11-15T03:47:23;94916.91;;;4.09;100.00
11329;BME280;5719;42.714;23.732;2022-11-15T03:49:52;94907.38;;;4.12;100.00
11329;BME280;5719;42.714;23.732;2022-11-15T03:52:21;94916.06;;;4.08;100.00
11329;BME280;5719;42.714;23.732;2022-11-15T03:54:49;94913.34;;;4.13;100.00
11329;BME280;5719;42.714;23.732;2022-11-15T03:57:17;94913.22;;;4.16;100.00
11329;BME280;5719;42.714;23.732;2022-11-15T03:59:43;94914.03;;;4.16;100.00
11329;BME280;5719;42.714;23.732;2022-11-15T04:02:11;94912.31;;;4.17;100.00
11329;BME280;5719;42.714;23.732;2022-11-15T04:04:39;94910.47;;;4.20;100.00
11329;BME280;5719;42.714;23.732;2022-11-15T04:07:06;94908.56;;;4.25;100.00
11329;BME280;5719;42.714;23.732;2022-11-15T04:09:33;94910.03;;;4.31;100.00
11329;BME280;5719;42.714;23.732;2022-11-15T04:12:20;94903.19;;;4.31;100.00
11329;BME280;5719;42.714;23.732;2022-11-15T04:14:56;94903.78;;;4.38;100.00
11329;BME280;5719;42.714;23.732;2022-11-15T04:17:34;94900.84;;;4.47;100.00
11329;BME280;5719;42.714;23.732;2022-11-15T04:20:04;94899.88;;;4.50;100.00
11329;BME280;5719;42.714;23.732;2022-11-15T04:22:48;94894.56;;;4.54;100.00
11329;BME280;5719;42.714;23.732;2022-11-15T04:25:33;94897.09;;;4.34;100.00
11329;BME280;5719;42.714;23.732;2022-11-15T04:28:00;94886.88;;;4.34;100.00
11329;BME280;5719;42.714;23.732;2022-11-15T04:30:26;94890.03;;;4.40;100.00
11329;BME280;5719;42.714;23.732;2022-11-15T04:32:53;94889.81;;;4.45;100.00
11329;BME280;5719;42.714;23.732;2022-11-15T04:35:22;94889.69;;;4.48;100.00
11329;BME280;5719;42.714;23.732;2022-11-15T04:37:48;94881.13;;;4.49;100.00
11329;BME280;5719;42.714;23.732;2022-11-15T04:40:15;94885.22;;;4.53;100.00
11329;BME280;5719;42.714;23.732;2022-11-15T04:42:42;94892.63;;;4.59;100.00
11329;BME280;5719;42.714;23.732;2022-11-15T04:45:09;94884.00;;;4.62;100.00
11329;BME280;5719;42.714;23.732;2022-11-15T04:47:37;94884.06;;;4.60;100.00
11329;BME280;5719;42.714;23.732;2022-11-15T04:50:04;94884.00;;;4.62;100.00
11329;BME280;5719;42.714;23.732;2022-11-15T04:52:32;94883.88;;;4.65;100.00
11329;BME280;5719;42.714;23.732;2022-11-15T04:54:59;94876.94;;;4.67;100.00
11329;BME280;5719;42.714;23.732;2022-11-15T04:57:26;94878.75;;;4.65;100.00
11329;BME280;5719;42.714;23.732;2022-11-15T04:59:53;94878.94;;;4.60;100.00
11329;BME280;5719;42.714;23.732;2022-11-15T05:02:20;94870.56;;;4.57;100.00
11329;BME280;5719;42.714;23.732;2022-11-15T05:04:47;94869.03;;;4.53;100.00
11329;BME280;5719;42.714;23.732;2022-11-15T05:07:12;94872.22;;;4.37;100.00
11329;BME280;5719;42.714;23.732;2022-11-15T05:09:41;94873.00;;;4.39;100.00
11329;BME280;5719;42.714;23.732;2022-11-15T05:12:08;94870.13;;;4.47;100.00
11329;BME280;5719;42.714;23.732;2022-11-15T05:14:34;94870.81;;;4.51;100.00
11329;BME280;5719;42.714;23.732;2022-11-15T05:17:01;94864.09;;;4.48;100.00
11329;BME280;5719;42.714;23.732;2022-11-15T05:19:28;94863.75;;;4.56;100.00
11329;BME280;5719;42.714;23.732;2022-11-15T05:21:55;94862.75;;;4.60;100.00
11329;BME280;5719;42.714;23.732;2022-11-15T05:24:22;94869.41;;;4.64;100.00
11329;BME280;5719;42.714;23.732;2022-11-15T05:26:50;94870.19;;;4.66;100.00
11329;BME280;5719;42.714;23.732;2022-11-15T05:29:17;94870.38;;;4.61;100.00
11329;BME280;5719;42.714;23.732;2022-11-15T05:31:44;94866.13;;;4.60;100.00
11329;BME280;5719;42.714;23.732;2022-11-15T05:34:11;94869.41;;;4.64;100.00
11329;BME280;5719;42.714;23.732;2022-11-15T05:36:39;94866.66;;;4.68;100.00
11329;BME280;5719;42.714;23.732;2022-11-15T05:39:08;94874.00;;;4.76;100.00
11329;BME280;5719;42.714;23.732;2022-11-15T05:41:37;94874.06;;;4.74;100.00
11329;BME280;5719;42.714;23.732;2022-11-15T05:44:09;94872.94;;;4.61;100.00
11329;BME280;5719;42.714;23.732;2022-11-15T05:46:37;94878.69;;;4.66;100.00
11329;BME280;5719;42.714;23.732;2022-11-15T05:49:06;94889.28;;;4.77;100.00
11329;BME280;5719;42.714;23.732;2022-11-15T05:51:34;94883.03;;;4.84;100.00
11329;BME280;5719;42.714;23.732;2022-11-15T05:54:02;94889.47;;;4.93;100.00
11329;BME280;5719;42.714;23.732;2022-11-15T05:56:29;94892.53;;;5.01;100.00
11329;BME280;5719;42.714;23.732;2022-11-15T05:58:57;94892.41;;;5.04;100.00
11329;BME280;5719;42.714;23.732;2022-11-15T06:01:26;94886.28;;;5.07;100.00
11329;BME280;5719;42.714;23.732;2022-11-15T06:03:54;94889.50;;;5.12;100.00
11329;BME280;5719;42.714;23.732;2022-11-15T06:06:21;94886.66;;;5.18;100.00
11329;BME280;5719;42.714;23.732;2022-11-15T06:08:48;94890.75;;;5.22;100.00
11329;BME280;5719;42.714;23.732;2022-11-15T06:11:14;94894.69;;;5.29;100.00
11329;BME280;5719;42.714;23.732;2022-11-15T06:13:41;94886.59;;;5.38;100.00
11329;BME280;5719;42.714;23.732;2022-11-15T06:16:08;94892.34;;;5.43;100.00
11329;BME280;5719;42.714;23.732;2022-11-15T06:18:37;94895.47;;;5.50;100.00
11329;BME280;5719;42.714;23.732;2022-11-15T06:21:04;94895.19;;;5.56;100.00
11329;BME280;5719;42.714;23.732;2022-11-15T06:23:33;94895.13;;;5.57;100.00
11329;BME280;5719;42.714;23.732;2022-11-15T06:26:01;94895.66;;;5.64;100.00
11329;BME280;5719;42.714;23.732;2022-11-15T06:28:28;94890.25;;;5.70;100.00
11329;BME280;5719;42.714;23.732;2022-11-15T06:30:55;94893.03;;;5.65;100.00
11329;BME280;5719;42.714;23.732;2022-11-15T06:33:23;94888.81;;;5.46;100.00
11329;BME280;5719;42.714;23.732;2022-11-15T06:35:51;94897.06;;;5.52;100.00
11329;BME280;5719;42.714;23.732;2022-11-15T06:38:18;94896.63;;;5.61;100.00
11329;BME280;5719;42.714;23.732;2022-11-15T06:40:45;94889.25;;;5.72;100.00
11329;BME280;5719;42.714;23.732;2022-11-15T06:43:12;94889.84;;;5.79;100.00
11329;BME280;5719;42.714;23.732;2022-11-15T06:45:40;94893.97;;;5.81;100.00
11329;BME280;5719;42.714;23.732;2022-11-15T06:48:07;94882.06;;;5.80;100.00
11329;BME280;5719;42.714;23.732;2022-11-15T06:50:33;94886.66;;;5.93;100.00
11329;BME280;5719;42.714;23.732;2022-11-15T06:53:02;94881.50;;;5.93;100.00
11329;BME280;5719;42.714;23.732;2022-11-15T06:55:29;94887.75;;;5.87;100.00
11329;BME280;5719;42.714;23.732;2022-11-15T06:57:56;94891.00;;;5.90;100.00
11329;BME280;5719;42.714;23.732;2022-11-15T07:00:23;94886.13;;;5.86;100.00
11329;BME280;5719;42.714;23.732;2022-11-15T07:02:50;94875.41;;;5.76;100.00
11329;BME280;5719;42.714;23.732;2022-11-15T07:05:17;94877.22;;;5.74;100.00
11329;BME280;5719;42.714;23.732;2022-11-15T07:07:51;94872.00;;;5.76;100.00
11329;BME280;5719;42.714;23.732;2022-11-15T07:10:19;94875.13;;;5.82;100.00
11329;BME280;5719;42.714;23.732;2022-11-15T07:12:47;94870.00;;;5.82;100.00
11329;BME280;5719;42.714;23.732;2022-11-15T07:15:14;94881.66;;;5.71;100.00
11329;BME280;5719;42.714;23.732;2022-11-15T07:17:41;94871.59;;;5.66;100.00
11329;BME280;5719;42.714;23.732;2022-11-15T07:20:09;94870.63;;;5.69;100.00
11329;BME280;5719;42.714;23.732;2022-11-15T07:22:36;94872.56;;;5.82;100.00
11329;BME280;5719;42.714;23.732;2022-11-15T07:25:03;94875.25;;;5.98;100.00
11329;BME280;5719;42.714;23.732;2022-11-15T07:27:32;94870.72;;;6.03;100.00
11329;BME280;5719;42.714;23.732;2022-11-15T07:29:59;94874.31;;;6.18;100.00
11329;BME280;5719;42.714;23.732;2022-11-15T07:32:26;94871.28;;;6.27;100.00
11329;BME280;5719;42.714;23.732;2022-11-15T07:34:54;94877.25;;;6.27;100.00
11329;BME280;5719;42.714;23.732;2022-11-15T07:37:20;94887.44;;;6.12;100.00
11329;BME280;5719;42.714;23.732;2022-11-15T07:39:47;94887.88;;;6.03;100.00
11329;BME280;5719;42.714;23.732;2022-11-15T07:42:14;94885.66;;;5.95;100.00
11329;BME280;5719;42.714;23.732;2022-11-15T07:44:56;94881.53;;;6.10;100.00
11329;BME280;5719;42.714;23.732;2022-11-15T07:47:23;94876.28;;;6.30;100.00
11329;BME280;5719;42.714;23.732;2022-11-15T07:49:50;94872.81;;;6.48;100.00
11329;BME280;5719;42.714;23.732;2022-11-15T07:52:17;94877.25;;;6.62;100.00
11329;BME280;5719;42.714;23.732;2022-11-15T07:54:44;94872.16;;;6.77;100.00
11329;BME280;5719;42.714;23.732;2022-11-15T07:57:11;94871.56;;;6.72;100.00
11329;BME280;5719;42.714;23.732;2022-11-15T07:59:38;94866.75;;;6.66;100.00
11329;BME280;5719;42.714;23.732;2022-11-15T08:02:08;94865.66;;;6.70;100.00
11329;BME280;5719;42.714;23.732;2022-11-15T08:04:35;94881.28;;;6.83;100.00
11329;BME280;5719;42.714;23.732;2022-11-15T08:07:02;94873.94;;;6.93;100.00
11329;BME280;5719;42.714;23.732;2022-11-15T08:09:29;94862.91;;;6.90;100.00
11329;BME280;5719;42.714;23.732;2022-11-15T08:11:55;94860.28;;;6.92;100.00
11329;BME280;5719;42.714;23.732;2022-11-15T08:14:22;94867.56;;;7.00;100.00
11329;BME280;5719;42.714;23.732;2022-11-15T08:16:49;94857.44;;;6.97;100.00
11329;BME280;5719;42.714;23.732;2022-11-15T08:19:18;94857.53;;;6.95;100.00
11329;BME280;5719;42.714;23.732;2022-11-15T08:21:45;94859.28;;;6.95;100.00
11329;BME280;5719;42.714;23.732;2022-11-15T08:24:12;94855.47;;;7.02;100.00
11329;BME280;5719;42.714;23.732;2022-11-15T08:26:39;94853.97;;;6.98;100.00
11329;BME280;5719;42.714;23.732;2022-11-15T08:29:06;94851.19;;;7.02;100.00
11329;BME280;5719;42.714;23.732;2022-11-15T08:31:34;94846.09;;;7.01;100.00
11329;BME280;5719;42.714;23.732;2022-11-15T08:34:01;94838.56;;;6.98;100.00
11329;BME280;5719;42.714;23.732;2022-11-15T08:36:30;94841.13;;;6.98;100.00
11329;BME280;5719;42.714;23.732;2022-11-15T08:38:57;94838.56;;;6.98;100.00
11329;BME280;5719;42.714;23.732;2022-11-15T08:41:26;94839.06;;;7.04;100.00
11329;BME280;5719;42.714;23.732;2022-11-15T08:43:54;94840.81;;;7.19;100.00
11329;BME280;5719;42.714;23.732;2022-11-15T08:46:21;94833.03;;;7.36;100.00
11329;BME280;5719;42.714;23.732;2022-11-15T08:48:48;94836.69;;;7.48;100.00
11329;BME280;5719;42.714;23.732;2022-11-15T08:51:15;94841.91;;;7.62;100.00
11329;BME280;5719;42.714;23.732;2022-11-15T08:53:43;94844.06;;;7.54;100.00
11329;BME280;5719;42.714;23.732;2022-11-15T08:56:11;94843.34;;;7.68;100.00
11329;BME280;5719;42.714;23.732;2022-11-15T08:58:39;94835.19;;;7.75;100.00
11329;BME280;5719;42.714;23.732;2022-11-15T09:01:06;94836.53;;;7.82;100.00
11329;BME280;5719;42.714;23.732;2022-11-15T09:03:41;94833.94;;;7.82;100.00
11329;BME280;5719;42.714;23.732;2022-11-15T09:06:08;94831.75;;;7.90;100.00
11329;BME280;5719;42.714;23.732;2022-11-15T09:08:35;94824.97;;;7.74;100.00
11329;BME280;5719;42.714;23.732;2022-11-15T09:11:04;94823.34;;;7.57;100.00
11329;BME280;5719;42.714;23.732;2022-11-15T09:13:31;94824.53;;;7.03;100.00
11329;BME280;5719;42.714;23.732;2022-11-15T09:15:58;94823.41;;;6.76;100.00
11329;BME280;5719;42.714;23.732;2022-11-15T09:18:25;94816.50;;;6.94;100.00
11329;BME280;5719;42.714;23.732;2022-11-15T09:20:55;94807.41;;;7.35;100.00
11329;BME280;5719;42.714;23.732;2022-11-15T09:23:23;94813.72;;;7.61;100.00
11329;BME280;5719;42.714;23.732;2022-11-15T09:25:50;94801.59;;;7.63;100.00
11329;BME280;5719;42.714;23.732;2022-11-15T09:28:18;94798.88;;;7.96;100.00
11329;BME280;5719;42.714;23.732;2022-11-15T09:30:45;94799.75;;;8.10;100.00
11329;BME280;5719;42.714;23.732;2022-11-15T09:33:12;94796.19;;;8.27;100.00
11329;BME280;5719;42.714;23.732;2022-11-15T09:35:39;94799.75;;;8.40;100.00
11329;BME280;5719;42.714;23.732;2022-11-15T09:38:07;94795.53;;;8.53;100.00
11329;BME280;5719;42.714;23.732;2022-11-15T09:40:36;94796.09;;;8.58;100.00
11329;BME280;5719;42.714;23.732;2022-11-15T09:43:26;94790.69;;;8.77;100.00
11329;BME280;5719;42.714;23.732;2022-11-15T09:46:02;94782.31;;;8.73;100.00
11329;BME280;5719;42.714;23.732;2022-11-15T09:48:50;94776.03;;;8.92;100.00
11329;BME280;5719;42.714;23.732;2022-11-15T09:51:25;94776.00;;;8.35;100.00
11329;BME280;5719;42.714;23.732;2022-11-15T09:53:58;94770.50;;;8.11;100.00
11329;BME280;5719;42.714;23.732;2022-11-15T09:56:30;94768.41;;;8.18;100.00
11329;BME280;5719;42.714;23.732;2022-11-15T09:59:13;94768.38;;;8.04;100.00
11329;BME280;5719;42.714;23.732;2022-11-15T10:01:50;94769.50;;;8.14;100.00
11329;BME280;5719;42.714;23.732;2022-11-15T10:04:20;94762.16;;;8.22;100.00
11329;BME280;5719;42.714;23.732;2022-11-15T10:06:52;94758.81;;;8.35;100.00
11329;BME280;5719;42.714;23.732;2022-11-15T10:09:23;94762.66;;;8.28;100.00
11329;BME280;5719;42.714;23.732;2022-11-15T10:11:54;94759.41;;;8.25;100.00
11329;BME280;5719;42.714;23.732;2022-11-15T10:14:25;94749.00;;;8.12;100.00
11329;BME280;5719;42.714;23.732;2022-11-15T10:17:23;94743.94;;;8.25;100.00
11329;BME280;5719;42.714;23.732;2022-11-15T10:20:04;94737.38;;;8.49;100.00
11329;BME280;5719;42.714;23.732;2022-11-15T10:22:39;94730.81;;;8.86;100.00
11329;BME280;5719;42.714;23.732;2022-11-15T10:25:18;94721.69;;;9.09;100.00
11329;BME280;5719;42.714;23.732;2022-11-15T10:27:52;94714.22;;;9.45;100.00
11329;BME280;5719;42.714;23.732;2022-11-15T10:30:20;94705.22;;;9.77;100.00
11329;BME280;5719;42.714;23.732;2022-11-15T10:32:48;94704.44;;;10.02;98.17
11329;BME280;5719;42.714;23.732;2022-11-15T10:35:21;94705.53;;;10.25;94.66
11329;BME280;5719;42.714;23.732;2022-11-15T10:37:48;94693.09;;;10.80;94.80
11329;BME280;5719;42.714;23.732;2022-11-15T10:40:18;94684.38;;;11.54;90.52
11329;BME280;5719;42.714;23.732;2022-11-15T10:42:46;94674.75;;;12.48;85.53
11329;BME280;5719;42.714;23.732;2022-11-15T10:45:26;94673.34;;;13.22;80.23
11329;BME280;5719;42.714;23.732;2022-11-15T10:47:53;94676.44;;;13.80;75.36
11329;BME280;5719;42.714;23.732;2022-11-15T10:50:32;94668.66;;;14.62;73.72
11329;BME280;5719;42.714;23.732;2022-11-15T10:53:01;94663.63;;;15.01;69.15
11329;BME280;5719;42.714;23.732;2022-11-15T10:55:30;94667.19;;;15.78;63.15
11329;BME280;5719;42.714;23.732;2022-11-15T10:58:02;94661.03;;;15.69;62.17
11329;BME280;5719;42.714;23.732;2022-11-15T11:00:34;94663.63;;;15.50;68.69
11329;BME280;5719;42.714;23.732;2022-11-15T11:03:04;94643.66;;;16.92;61.55
11329;BME280;5719;42.714;23.732;2022-11-15T11:05:33;94644.28;;;16.01;60.04
11329;BME280;5719;42.714;23.732;2022-11-15T11:08:04;94643.50;;;15.12;69.79
11329;BME280;5719;42.714;23.732;2022-11-15T11:10:31;94634.94;;;15.41;67.58
11329;BME280;5719;42.714;23.732;2022-11-15T11:13:13;94637.13;;;16.03;61.91
11329;BME280;5719;42.714;23.732;2022-11-15T11:15:45;94627.59;;;15.06;67.32
11329;BME280;5719;42.714;23.732;2022-11-15T11:18:18;94630.50;;;15.41;63.12
11329;BME280;5719;42.714;23.732;2022-11-15T11:20:51;94627.72;;;14.34;68.16
11329;BME280;5719;42.714;23.732;2022-11-15T11:23:38;94630.31;;;13.93;74.23
11329;BME280;5719;42.714;23.732;2022-11-15T11:26:18;94612.38;;;15.11;64.57
11329;BME280;5719;42.714;23.732;2022-11-15T11:29:01;94611.53;;;17.09;58.72
11329;BME280;5719;42.714;23.732;2022-11-15T11:31:37;94597.81;;;17.07;58.65
11329;BME280;5719;42.714;23.732;2022-11-15T11:34:14;94597.88;;;17.95;56.07
11329;BME280;5719;42.714;23.732;2022-11-15T11:36:56;94596.31;;;18.28;54.39
11329;BME280;5719;42.714;23.732;2022-11-15T11:39:31;94590.88;;;19.73;50.84
11329;BME280;5719;42.714;23.732;2022-11-15T11:42:09;94578.69;;;20.61;49.09
11329;BME280;5719;42.714;23.732;2022-11-15T11:44:48;94566.38;;;20.62;46.50
11329;BME280;5719;42.714;23.732;2022-11-15T11:47:22;94577.56;;;19.83;49.14
11329;BME280;5719;42.714;23.732;2022-11-15T11:49:51;94565.59;;;20.13;49.04
11329;BME280;5719;42.714;23.732;2022-11-15T11:52:24;94567.94;;;20.79;47.42
11329;BME280;5719;42.714;23.732;2022-11-15T11:55:00;94563.72;;;22.30;44.47
11329;BME280;5719;42.714;23.732;2022-11-15T11:57:34;94563.72;;;22.68;42.81
11329;BME280;5719;42.714;23.732;2022-11-15T12:00:14;94564.34;;;22.18;41.71
11329;BME280;5719;42.714;23.732;2022-11-15T12:02:47;94563.13;;;21.60;44.58
11329;BME280;5719;42.714;23.732;2022-11-15T12:05:22;94563.53;;;22.84;42.48
11329;BME280;5719;42.714;23.732;2022-11-15T12:07:59;94552.94;;;21.57;42.89
11329;BME280;5719;42.714;23.732;2022-11-15T12:10:29;94550.00;;;20.35;46.22
11329;BME280;5719;42.714;23.732;2022-11-15T12:13:02;94542.94;;;20.91;46.34
11329;BME280;5719;42.714;23.732;2022-11-15T12:15:31;94547.16;;;22.07;44.15
11329;BME280;5719;42.714;23.732;2022-11-15T12:18:01;94547.59;;;21.96;42.17
11329;BME280;5719;42.714;23.732;2022-11-15T12:20:31;94532.50;;;22.57;42.65
11329;BME280;5719;42.714;23.732;2022-11-15T12:23:04;94533.34;;;22.86;42.06
11329;BME280;5719;42.714;23.732;2022-11-15T12:25:36;94524.34;;;23.88;39.76
11329;BME280;5719;42.714;23.732;2022-11-15T12:28:13;94527.34;;;24.97;37.65
11329;BME280;5719;42.714;23.732;2022-11-15T12:30:45;94525.06;;;25.34;36.96
11329;BME280;5719;42.714;23.732;2022-11-15T12:33:34;94522.84;;;24.91;36.28
11329;BME280;5719;42.714;23.732;2022-11-15T12:36:04;94525.56;;;23.50;39.16
11329;BME280;5719;42.714;23.732;2022-11-15T12:38:54;94520.16;;;24.50;38.40
11329;BME280;5719;42.714;23.732;2022-11-15T12:41:22;94514.38;;;23.90;38.41
11329;BME280;5719;42.714;23.732;2022-11-15T12:43:50;94506.53;;;23.97;38.79
11329;BME280;5719;42.714;23.732;2022-11-15T12:46:24;94513.50;;;22.46;41.66
11329;BME280;5719;42.714;23.732;2022-11-15T12:49:44;94503.50;;;24.21;38.28
11329;BME280;5719;42.714;23.732;2022-11-15T12:52:11;94497.28;;;24.35;37.69
11329;BME280;5719;42.714;23.732;2022-11-15T12:55:29;94504.81;;;24.11;37.35
11329;BME280;5719;42.714;23.732;2022-11-15T12:58:24;94504.78;;;23.62;38.27
11329;BME280;5719;42.714;23.732;2022-11-15T13:00:53;94481.44;;;24.08;37.38
11329;BME280;5719;42.714;23.732;2022-11-15T13:03:29;94498.16;;;24.77;36.30
11329;BME280;5719;42.714;23.732;2022-11-15T13:06:06;94495.00;;;24.60;36.78
11329;BME280;5719;42.714;23.732;2022-11-15T13:08:43;94497.56;;;24.19;37.46
11329;BME280;5719;42.714;23.732;2022-11-15T13:14:42;94486.81;;;24.21;36.52
11329;BME280;5719;42.714;23.732;2022-11-15T13:17:23;94489.38;;;24.70;36.24
11329;BME280;5719;42.714;23.732;2022-11-15T13:19:55;94483.78;;;23.96;37.05
11329;BME280;5719;42.714;23.732;2022-11-15T13:22:25;94478.44;;;23.89;37.21
11329;BME280;5719;42.714;23.732;2022-11-15T13:28:21;94485.31;;;23.41;38.15
11329;BME280;5719;42.714;23.732;2022-11-15T13:30:51;94471.13;;;23.64;37.93
11329;BME280;5719;42.714;23.732;2022-11-15T13:33:20;94466.13;;;24.24;36.70